createdAt,value
2022-09-10T00:01:30.830Z,16.22
2022-09-10T00:03:59.006Z,16.19
2022-09-10T00:06:28.929Z,16.19
2022-09-10T00:08:58.406Z,16.19
2022-09-10T00:11:31.823Z,16.12
2022-09-10T00:14:00.161Z,16.13
2022-09-10T00:16:28.821Z,16.13
2022-09-10T00:18:57.197Z,16.13
2022-09-10T00:21:25.299Z,16.10
2022-09-10T00:23:54.762Z,16.06
2022-09-10T00:26:24.846Z,16.09
2022-09-10T00:28:54.414Z,16.08
2022-09-10T00:31:24.075Z,16.09
2022-09-10T00:33:52.509Z,16.07
2022-09-10T00:36:22.658Z,16.08
2022-09-10T00:38:51.514Z,16.05
2022-09-10T00:41:25.077Z,16.08
2022-09-10T00:43:55.906Z,16.06
2022-09-10T00:46:34.406Z,16.03
2022-09-10T00:49:07.009Z,16.02
2022-09-10T00:51:36.464Z,16.07
2022-09-10T00:54:06.506Z,16.04
2022-09-10T00:56:35.908Z,16.04
2022-09-10T00:59:05.560Z,16.06
2022-09-10T01:01:34.645Z,16.05
2022-09-10T01:04:04.748Z,16.02
2022-09-10T01:06:33.010Z,15.96
2022-09-10T01:09:03.008Z,15.93
2022-09-10T01:11:53.321Z,15.96
2022-09-10T01:14:53.235Z,15.88
2022-09-10T01:17:31.523Z,15.86
2022-09-10T01:20:38.192Z,15.83
2022-09-10T01:23:25.625Z,15.78
2022-09-10T01:26:05.441Z,15.81
2022-09-10T01:28:40.346Z,15.86
2022-09-10T01:31:12.824Z,15.84
2022-09-10T01:33:47.507Z,15.85
2022-09-10T01:36:20.769Z,15.83
2022-09-10T01:38:50.044Z,15.83
2022-09-10T01:41:18.596Z,15.88
2022-09-10T01:43:47.878Z,15.91
2022-09-10T01:46:35.380Z,15.91
2022-09-10T01:49:18.752Z,15.90
2022-09-10T01:52:13.186Z,15.90
2022-09-10T01:54:56.333Z,15.89
2022-09-10T01:57:33.820Z,15.88
2022-09-10T02:00:09.073Z,15.90
2022-09-10T02:02:48.143Z,15.92
2022-09-10T02:05:20.579Z,15.94
2022-09-10T02:07:59.595Z,15.94
2022-09-10T02:10:27.825Z,15.94
2022-09-10T02:12:56.067Z,15.92
2022-09-10T02:15:44.407Z,15.91
2022-09-10T02:18:20.772Z,15.94
2022-09-10T02:20:51.843Z,15.95
2022-09-10T02:23:23.411Z,15.87
2022-09-10T02:25:54.002Z,15.89
2022-09-10T02:28:28.384Z,15.82
2022-09-10T02:30:57.564Z,15.87
2022-09-10T02:33:25.357Z,15.87
2022-09-10T02:35:54.452Z,15.89
2022-09-10T02:38:22.418Z,15.89
2022-09-10T02:40:50.363Z,15.92
2022-09-10T02:43:18.614Z,15.94
2022-09-10T02:45:46.438Z,15.95
2022-09-10T02:48:15.625Z,15.96
2022-09-10T02:50:46.493Z,15.98
2022-09-10T02:53:14.474Z,15.94
2022-09-10T02:55:46.151Z,15.94
2022-09-10T02:58:15.786Z,15.95
2022-09-10T03:00:43.961Z,15.96
2022-09-10T03:03:12.335Z,15.97
2022-09-10T03:05:41.680Z,16.00
2022-09-10T03:08:10.302Z,16.00
2022-09-10T03:10:41.012Z,15.98
2022-09-10T03:13:08.864Z,16.00
2022-09-10T03:15:36.637Z,16.00
2022-09-10T03:18:04.540Z,16.02
2022-09-10T03:20:32.349Z,16.00
2022-09-10T03:23:01.557Z,16.03
2022-09-10T03:25:31.161Z,16.05
2022-09-10T03:27:59.756Z,16.07
2022-09-10T03:30:28.433Z,16.02
2022-09-10T03:32:57.526Z,16.00
2022-09-10T03:35:25.565Z,15.98
2022-09-10T03:37:54.273Z,15.99
2022-09-10T03:40:24.377Z,16.02
2022-09-10T03:42:52.206Z,16.03
2022-09-10T03:45:20.250Z,16.02
2022-09-10T03:47:48.046Z,15.99
2022-09-10T03:50:16.264Z,15.98
2022-09-10T03:52:44.002Z,15.97
2022-09-10T03:55:12.287Z,15.96
2022-09-10T03:57:42.652Z,15.92
2022-09-10T04:00:12.846Z,15.86
2022-09-10T04:02:44.068Z,15.86
2022-09-10T04:05:13.467Z,15.85
2022-09-10T04:07:41.541Z,15.85
2022-09-10T04:10:09.796Z,15.87
2022-09-10T04:12:37.787Z,15.87
2022-09-10T04:15:08.605Z,15.86
2022-09-10T04:17:37.809Z,15.81
2022-09-10T04:20:06.584Z,15.77
2022-09-10T04:22:34.949Z,15.74
2022-09-10T04:25:02.923Z,15.76
2022-09-10T04:27:30.933Z,15.73
2022-09-10T04:29:58.866Z,15.73
2022-09-10T04:32:28.208Z,15.73
2022-09-10T04:34:56.151Z,15.73
2022-09-10T04:37:24.583Z,15.74
2022-09-10T04:39:55.361Z,15.73
2022-09-10T04:42:23.254Z,15.72
2022-09-10T04:44:52.908Z,15.72
2022-09-10T04:47:21.257Z,15.72
2022-09-10T04:49:50.540Z,15.71
2022-09-10T04:52:20.161Z,15.70
2022-09-10T04:54:47.991Z,15.71
2022-09-10T04:57:16.027Z,15.71
2022-09-10T04:59:44.011Z,15.72
2022-09-10T05:02:12.840Z,15.72
2022-09-10T05:04:40.821Z,15.73
2022-09-10T05:07:09.986Z,15.68
2022-09-10T05:09:37.799Z,15.68
2022-09-10T05:12:06.141Z,15.70
2022-09-10T05:14:34.514Z,15.68
2022-09-10T05:17:03.655Z,15.71
2022-09-10T05:19:33.350Z,15.73
2022-09-10T05:22:05.645Z,15.75
2022-09-10T05:24:35.217Z,15.78
2022-09-10T05:27:05.353Z,15.83
2022-09-10T05:29:33.160Z,15.83
2022-09-10T05:32:01.266Z,15.84
2022-09-10T05:34:29.115Z,15.83
2022-09-10T05:36:58.567Z,15.83
2022-09-10T05:39:26.334Z,15.84
2022-09-10T05:41:55.906Z,15.87
2022-09-10T05:44:24.579Z,15.91
2022-09-10T05:46:53.198Z,15.96
2022-09-10T05:49:21.926Z,15.98
2022-09-10T05:51:49.691Z,16.03
2022-09-10T05:54:17.526Z,16.10
2022-09-10T05:56:46.526Z,16.27
2022-09-10T05:59:15.871Z,16.39
2022-09-10T06:01:51.314Z,16.53
2022-09-10T06:04:20.860Z,16.56
2022-09-10T06:06:49.713Z,16.53
2022-09-10T06:09:19.150Z,16.48
2022-09-10T06:12:07.055Z,16.53
2022-09-10T06:14:36.940Z,16.50
2022-09-10T06:17:04.888Z,16.57
2022-09-10T06:19:33.764Z,16.61
2022-09-10T06:22:01.538Z,16.67
2022-09-10T06:24:32.170Z,16.75
2022-09-10T06:27:00.648Z,16.79
2022-09-10T06:29:31.101Z,16.83
2022-09-10T06:32:01.837Z,16.80
2022-09-10T06:34:29.663Z,16.81
2022-09-10T06:36:58.272Z,16.75
2022-09-10T06:39:28.792Z,16.66
2022-09-10T06:42:00.111Z,16.63
2022-09-10T06:44:50.373Z,16.58
2022-09-10T06:50:26.482Z,16.67
2022-09-10T06:52:58.105Z,16.73
2022-09-10T06:55:26.568Z,16.79
2022-09-10T06:57:54.343Z,16.79
2022-09-10T07:00:23.141Z,16.76
2022-09-10T07:02:55.431Z,16.70
2022-09-10T07:05:24.969Z,16.69
2022-09-10T07:07:52.922Z,16.64
2022-09-10T07:10:23.036Z,16.64
2022-09-10T07:12:52.293Z,16.63
2022-09-10T07:15:22.053Z,16.63
2022-09-10T07:17:51.479Z,16.59
2022-09-10T07:20:25.012Z,16.58
2022-09-10T07:22:55.131Z,16.53
2022-09-10T07:25:26.110Z,16.56
2022-09-10T07:28:01.257Z,16.51
2022-09-10T07:30:32.138Z,16.57
2022-09-10T07:33:02.746Z,16.71
2022-09-10T07:35:35.390Z,16.83
2022-09-10T07:38:03.527Z,16.94
2022-09-10T07:40:32.683Z,16.95
2022-09-10T07:43:00.836Z,17.00
2022-09-10T07:45:34.630Z,17.01
2022-09-10T07:48:05.341Z,17.11
2022-09-10T07:50:39.656Z,17.18
2022-09-10T07:53:07.672Z,17.21
2022-09-10T07:55:36.636Z,17.21
2022-09-10T07:58:07.932Z,17.30
2022-09-10T08:00:37.174Z,17.36
2022-09-10T08:03:08.270Z,17.41
2022-09-10T08:05:39.487Z,17.48
2022-09-10T08:08:07.998Z,17.54
2022-09-10T08:10:36.289Z,17.59
2022-09-10T08:13:04.074Z,17.62
2022-09-10T08:15:31.961Z,17.64
2022-09-10T08:18:02.466Z,17.70
2022-09-10T08:20:31.227Z,17.78
2022-09-10T08:23:01.004Z,17.92
2022-09-10T08:25:28.946Z,18.03
2022-09-10T08:27:58.758Z,18.12
2022-09-10T08:30:27.029Z,18.25
2022-09-10T08:32:56.134Z,18.40
2022-09-10T08:35:24.067Z,18.27
2022-09-10T08:37:51.893Z,18.42
2022-09-10T08:40:23.626Z,18.38
2022-09-10T08:42:53.226Z,18.48
2022-09-10T08:45:29.056Z,18.50
2022-09-10T08:48:04.144Z,18.32
2022-09-10T08:50:41.264Z,18.37
2022-09-10T08:53:26.243Z,18.55
2022-09-10T08:56:03.199Z,18.81
2022-09-10T08:58:41.204Z,19.05
2022-09-10T09:01:16.318Z,19.34
2022-09-10T09:03:47.163Z,19.67
2022-09-10T09:06:26.104Z,19.83
2022-09-10T09:08:54.959Z,20.04
2022-09-10T09:11:41.063Z,20.22
2022-09-10T09:14:22.248Z,20.26
2022-09-10T09:17:09.819Z,20.46
2022-09-10T09:19:45.685Z,20.67
2022-09-10T09:22:20.734Z,20.70
2022-09-10T09:24:57.400Z,20.65
2022-09-10T09:27:30.274Z,20.57
2022-09-10T09:30:03.532Z,20.49
2022-09-10T09:32:38.174Z,20.22
2022-09-10T09:35:17.330Z,20.14
2022-09-10T09:37:48.148Z,20.11
2022-09-10T09:40:28.214Z,20.12
2022-09-10T09:43:03.821Z,20.00
2022-09-10T09:45:37.798Z,20.08
2022-09-10T09:48:07.507Z,20.12
2022-09-10T09:50:41.778Z,20.09
2022-09-10T09:53:15.168Z,20.08
2022-09-10T09:55:47.018Z,20.20
2022-09-10T09:58:50.705Z,20.33
2022-09-10T10:01:22.051Z,20.41
2022-09-10T10:04:04.031Z,20.46
2022-09-10T10:06:34.581Z,20.41
2022-09-10T10:09:06.087Z,20.43
2022-09-10T10:11:48.283Z,20.38
2022-09-10T10:14:38.258Z,20.53
2022-09-10T10:17:43.143Z,20.80
2022-09-10T10:20:13.500Z,20.70
2022-09-10T10:22:42.580Z,20.91
2022-09-10T10:25:40.362Z,21.10
2022-09-10T10:28:16.770Z,21.24
2022-09-10T10:30:52.863Z,21.10
2022-09-10T10:33:27.695Z,21.29
2022-09-10T10:36:04.631Z,21.44
2022-09-10T10:38:35.206Z,21.68
2022-09-10T10:41:34.300Z,21.70
2022-09-10T10:44:24.067Z,21.62
2022-09-10T10:47:11.607Z,21.38
2022-09-10T10:49:50.079Z,21.38
2022-09-10T10:52:27.585Z,21.43
2022-09-10T10:55:12.549Z,21.35
2022-09-10T10:58:05.574Z,21.17
2022-09-10T11:00:42.390Z,21.03
2022-09-10T11:03:21.289Z,20.99
2022-09-10T11:05:52.950Z,21.06
2022-09-10T11:08:31.311Z,21.19
2022-09-10T11:11:05.901Z,21.23
2022-09-10T11:13:40.696Z,21.66
2022-09-10T11:16:16.654Z,21.95
2022-09-10T11:18:51.784Z,22.08
2022-09-10T11:21:27.030Z,22.17
2022-09-10T11:24:01.741Z,22.58
2022-09-10T11:26:36.451Z,22.97
2022-09-10T11:29:18.955Z,22.76
2022-09-10T11:31:51.084Z,22.69
2022-09-10T11:34:27.211Z,22.46
2022-09-10T11:37:02.253Z,22.29
2022-09-10T11:39:34.580Z,22.23
2022-09-10T11:42:13.492Z,22.56
2022-09-10T11:44:52.139Z,22.82
2022-09-10T11:47:27.881Z,23.11
2022-09-10T11:50:02.711Z,23.11
2022-09-10T11:52:33.618Z,23.36
2022-09-10T11:55:03.540Z,23.55
2022-09-10T11:57:39.240Z,23.39
2022-09-10T12:00:15.971Z,23.06
2022-09-10T12:03:16.403Z,22.90
2022-09-10T12:06:00.119Z,22.75
2022-09-10T12:08:59.783Z,22.37
2022-09-10T12:11:36.147Z,22.22
2022-09-10T12:14:07.599Z,22.02
2022-09-10T12:16:39.497Z,21.85
2022-09-10T12:19:17.610Z,21.79
2022-09-10T12:21:50.935Z,21.63
2022-09-10T12:24:28.191Z,21.43
2022-09-10T12:26:56.853Z,21.33
2022-09-10T12:29:31.606Z,21.21
2022-09-10T12:32:28.974Z,21.25
2022-09-10T12:35:47.673Z,21.14
2022-09-10T12:38:51.234Z,21.03
2022-09-10T12:42:10.987Z,21.14
2022-09-10T12:44:47.044Z,21.23
2022-09-10T12:47:44.938Z,21.34
2022-09-10T12:50:35.907Z,21.50
2022-09-10T12:53:44.556Z,21.57
2022-09-10T12:56:38.117Z,21.71
2022-09-10T12:59:35.658Z,21.82
2022-09-10T13:02:04.151Z,21.95
2022-09-10T13:04:36.151Z,22.00
2022-09-10T13:07:07.073Z,21.97
2022-09-10T13:09:38.827Z,21.97
2022-09-10T13:12:21.961Z,22.03
2022-09-10T13:14:53.787Z,22.12
2022-09-10T13:17:39.742Z,22.28
2022-09-10T13:20:29.049Z,22.18
2022-09-10T13:23:01.421Z,22.03
2022-09-10T13:25:42.957Z,22.14
2022-09-10T13:28:48.433Z,21.98
2022-09-10T13:31:26.008Z,22.04
2022-09-10T13:34:33.281Z,22.38
2022-09-10T13:37:28.766Z,22.35
2022-09-10T13:40:36.918Z,22.36
2022-09-10T13:43:19.726Z,22.44
2022-09-10T13:45:50.912Z,22.57
2022-09-10T13:48:23.031Z,22.71
2022-09-10T13:51:00.569Z,22.56
2022-09-10T13:53:30.364Z,22.59
2022-09-10T13:56:00.860Z,22.73
2022-09-10T13:58:33.860Z,22.68
2022-09-10T14:01:03.489Z,22.68
2022-09-10T14:03:34.705Z,22.50
2022-09-10T14:06:05.083Z,22.46
2022-09-10T14:08:35.848Z,22.41
2022-09-10T14:11:09.010Z,22.16
2022-09-10T14:13:40.355Z,21.81
2022-09-10T14:16:12.251Z,21.88
2022-09-10T14:18:44.915Z,21.92
2022-09-10T14:21:14.808Z,21.84
2022-09-10T14:23:47.390Z,21.92
2022-09-10T14:26:23.194Z,21.91
2022-09-10T14:28:53.795Z,21.95
2022-09-10T14:31:35.148Z,21.89
2022-09-10T14:34:32.017Z,21.79
2022-09-10T14:37:00.996Z,21.64
2022-09-10T14:39:29.073Z,21.53
2022-09-10T14:42:11.779Z,21.50
2022-09-10T14:44:43.641Z,21.47
2022-09-10T14:47:16.216Z,21.37
2022-09-10T14:49:47.160Z,21.36
2022-09-10T14:52:15.600Z,21.49
2022-09-10T14:54:43.612Z,21.43
2022-09-10T14:57:14.757Z,21.36
2022-09-10T14:59:44.593Z,21.31
2022-09-10T15:02:16.934Z,21.26
2022-09-10T15:04:46.448Z,21.15
2022-09-10T15:07:14.581Z,21.24
2022-09-10T15:09:42.286Z,21.26
2022-09-10T15:12:14.932Z,21.27
2022-09-10T15:14:42.841Z,21.15
2022-09-10T15:17:14.750Z,21.07
2022-09-10T15:19:42.555Z,20.97
2022-09-10T15:22:20.901Z,20.97
2022-09-10T15:25:08.614Z,21.01
2022-09-10T15:27:37.291Z,21.07
2022-09-10T15:30:06.295Z,21.09
2022-09-10T15:32:34.213Z,21.12
2022-09-10T15:35:03.244Z,21.12
2022-09-10T15:37:32.337Z,21.13
2022-09-10T15:40:00.177Z,21.10
2022-09-10T15:42:28.028Z,21.12
2022-09-10T15:44:55.705Z,21.17
2022-09-10T15:47:24.137Z,21.16
2022-09-10T15:49:53.424Z,21.15
2022-09-10T15:52:21.442Z,21.10
2022-09-10T15:54:50.551Z,21.10
2022-09-10T15:57:18.368Z,21.15
2022-09-10T15:59:46.972Z,21.27
2022-09-10T16:02:14.909Z,21.27
2022-09-10T16:04:43.240Z,21.24
2022-09-10T16:07:11.647Z,21.24
2022-09-10T16:09:40.015Z,21.12
2022-09-10T16:12:09.965Z,21.09
2022-09-10T16:14:37.913Z,21.06
2022-09-10T16:17:10.400Z,21.03
2022-09-10T16:19:38.331Z,21.02
2022-09-10T16:22:06.580Z,20.98
2022-09-10T16:24:34.580Z,20.95
2022-09-10T16:27:02.456Z,20.99
2022-09-10T16:29:32.828Z,20.94
2022-09-10T16:32:00.715Z,20.96
2022-09-10T16:34:28.700Z,20.95
2022-09-10T16:36:56.680Z,21.00
2022-09-10T16:39:24.645Z,20.98
2022-09-10T16:41:52.553Z,20.83
2022-09-10T16:44:20.487Z,20.72
2022-09-10T16:46:50.028Z,20.69
2022-09-10T16:49:19.696Z,20.65
2022-09-10T16:51:49.029Z,20.59
2022-09-10T16:54:19.477Z,20.49
2022-09-10T16:56:48.679Z,20.43
2022-09-10T16:59:18.650Z,20.44
2022-09-10T17:01:49.495Z,20.42
2022-09-10T17:04:24.677Z,20.38
2022-09-10T17:06:55.881Z,20.30
2022-09-10T17:09:24.728Z,20.25
2022-09-10T17:11:52.608Z,20.18
2022-09-10T17:14:20.405Z,20.11
2022-09-10T17:16:48.690Z,20.06
2022-09-10T17:19:20.132Z,20.06
2022-09-10T17:21:51.278Z,20.02
2022-09-10T17:24:21.224Z,19.97
2022-09-10T17:26:49.161Z,19.91
2022-09-10T17:29:18.832Z,19.84
2022-09-10T17:31:48.029Z,19.75
2022-09-10T17:34:16.750Z,19.68
2022-09-10T17:36:47.679Z,19.66
2022-09-10T17:39:16.345Z,19.62
2022-09-10T17:41:44.243Z,19.61
2022-09-10T17:44:13.328Z,19.56
2022-09-10T17:46:42.700Z,19.56
2022-09-10T17:49:13.789Z,19.53
2022-09-10T17:51:42.168Z,19.49
2022-09-10T17:54:13.096Z,19.49
2022-09-10T17:56:41.813Z,19.47
2022-09-10T17:59:14.255Z,19.46
2022-09-10T18:01:42.988Z,19.44
2022-09-10T18:04:14.187Z,19.43
2022-09-10T18:06:41.953Z,19.38
2022-09-10T18:09:12.379Z,19.36
2022-09-10T18:11:41.298Z,19.34
2022-09-10T18:14:14.571Z,19.35
2022-09-10T18:16:42.329Z,19.33
2022-09-10T18:19:14.729Z,19.33
2022-09-10T18:21:44.105Z,19.31
2022-09-10T18:24:16.837Z,19.30
2022-09-10T18:26:49.222Z,19.28
2022-09-10T18:29:18.979Z,19.25
2022-09-10T18:31:49.931Z,19.24
2022-09-10T18:34:23.011Z,19.20
2022-09-10T18:36:54.171Z,19.17
2022-09-10T18:39:24.281Z,19.16
2022-09-10T18:41:52.548Z,19.14
2022-09-10T18:44:23.086Z,19.12
2022-09-10T18:46:52.634Z,19.07
2022-09-10T18:49:22.390Z,19.07
2022-09-10T18:51:50.309Z,19.03
2022-09-10T18:54:18.736Z,19.01
2022-09-10T18:56:49.093Z,18.97
2022-09-10T18:59:21.170Z,18.95
2022-09-10T19:01:50.371Z,18.91
2022-09-10T19:04:21.627Z,18.87
2022-09-10T19:06:50.742Z,18.83
2022-09-10T19:09:20.503Z,18.82
2022-09-10T19:11:51.549Z,18.80
2022-09-10T19:14:21.895Z,18.79
2022-09-10T19:16:51.074Z,18.78
2022-09-10T19:19:20.958Z,18.77
2022-09-10T19:21:50.205Z,18.76
2022-09-10T19:24:25.326Z,18.75
2022-09-10T19:27:02.748Z,18.76
2022-09-10T19:29:30.654Z,18.79
2022-09-10T19:31:58.357Z,18.80
2022-09-10T19:34:27.230Z,18.81
2022-09-10T19:36:55.104Z,18.77
2022-09-10T19:39:22.875Z,18.79
2022-09-10T19:41:51.104Z,18.76
2022-09-10T19:44:20.763Z,18.73
2022-09-10T19:46:48.525Z,18.70
2022-09-10T19:49:16.791Z,18.67
2022-09-10T19:51:44.472Z,18.66
2022-09-10T19:54:12.562Z,18.63
2022-09-10T19:56:42.329Z,18.60
2022-09-10T19:59:10.805Z,18.56
2022-09-10T20:01:42.453Z,18.55
2022-09-10T20:04:12.017Z,18.49
2022-09-10T20:06:42.424Z,18.42
2022-09-10T20:09:10.841Z,18.39
2022-09-10T20:11:39.404Z,18.31
2022-09-10T20:14:09.874Z,18.27
2022-09-10T20:16:39.646Z,18.20
2022-09-10T20:19:10.823Z,18.12
2022-09-10T20:21:39.001Z,18.11
2022-09-10T20:24:08.110Z,18.07
2022-09-10T20:26:38.009Z,18.04
2022-09-10T20:29:08.297Z,17.99
2022-09-10T20:31:41.041Z,17.94
2022-09-10T20:34:13.355Z,17.90
2022-09-10T20:36:42.073Z,17.85
2022-09-10T20:39:11.220Z,17.78
2022-09-10T20:41:39.948Z,17.74
2022-09-10T20:44:07.813Z,17.70
2022-09-10T20:46:35.738Z,17.65
2022-09-10T20:49:03.700Z,17.61
2022-09-10T20:51:34.719Z,17.56
2022-09-10T20:54:02.842Z,17.52
2022-09-10T20:56:30.619Z,17.46
2022-09-10T20:58:59.385Z,17.45
2022-09-10T21:01:30.994Z,17.39
2022-09-10T21:04:01.292Z,17.33
2022-09-10T21:06:31.152Z,17.31
2022-09-10T21:09:00.960Z,17.31
2022-09-10T21:11:30.713Z,17.27
2022-09-10T21:14:00.560Z,17.24
2022-09-10T21:16:29.902Z,17.22
2022-09-10T21:18:59.514Z,17.20
2022-09-10T21:21:29.532Z,17.19
2022-09-10T21:23:58.949Z,17.18
2022-09-10T21:26:30.397Z,17.15
2022-09-10T21:29:00.390Z,17.11
2022-09-10T21:31:29.225Z,17.10
2022-09-10T21:34:02.425Z,17.05
2022-09-10T21:36:31.754Z,17.02
2022-09-10T21:39:01.006Z,16.99
2022-09-10T21:41:32.267Z,16.94
2022-09-10T21:44:00.848Z,16.91
2022-09-10T21:46:29.419Z,16.87
2022-09-10T21:48:57.261Z,16.84
2022-09-10T21:51:25.347Z,16.81
2022-09-10T21:53:54.837Z,16.78
2022-09-10T21:56:23.359Z,16.74
2022-09-10T21:58:53.618Z,16.71
2022-09-10T22:01:23.457Z,16.68
2022-09-10T22:03:52.592Z,16.64
2022-09-10T22:06:23.004Z,16.61
2022-09-10T22:08:52.542Z,16.60
2022-09-10T22:11:23.306Z,16.59
2022-09-10T22:13:57.229Z,16.58
2022-09-10T22:16:24.960Z,16.56
2022-09-10T22:18:53.779Z,16.53
2022-09-10T22:21:21.536Z,16.50
2022-09-10T22:23:51.357Z,16.48
2022-09-10T22:26:21.199Z,16.46
2022-09-10T22:28:52.771Z,16.44
2022-09-10T22:31:23.993Z,16.40
2022-09-10T22:33:54.806Z,16.39
2022-09-10T22:36:24.516Z,16.38
2022-09-10T22:38:53.822Z,16.36
2022-09-10T22:41:23.091Z,16.33
2022-09-10T22:43:51.316Z,16.29
2022-09-10T22:46:21.378Z,16.29
2022-09-10T22:48:49.325Z,16.25
2022-09-10T22:51:19.232Z,16.22
2022-09-10T22:53:48.143Z,16.19
2022-09-10T22:56:18.062Z,16.16
2022-09-10T22:58:46.642Z,16.12
2022-09-10T23:01:16.195Z,16.09
2022-09-10T23:03:45.892Z,16.07
2022-09-10T23:06:15.018Z,16.02
2022-09-10T23:08:44.056Z,16.02
2022-09-10T23:11:15.221Z,15.99
2022-09-10T23:13:43.902Z,15.98
2022-09-10T23:16:14.379Z,15.96
2022-09-10T23:18:43.390Z,15.95
2022-09-10T23:21:13.827Z,15.94
2022-09-10T23:23:45.771Z,15.93
2022-09-10T23:26:13.721Z,15.93
2022-09-10T23:28:42.761Z,15.90
2022-09-10T23:31:14.085Z,15.88
2022-09-10T23:33:43.386Z,15.86
2022-09-10T23:36:13.372Z,15.85
2022-09-10T23:38:41.966Z,15.82
2022-09-10T23:41:10.293Z,15.81
2022-09-10T23:43:39.084Z,15.78
2022-09-10T23:46:07.182Z,15.77
2022-09-10T23:48:34.875Z,15.76
2022-09-10T23:51:03.252Z,15.74
2022-09-10T23:53:32.761Z,15.73
2022-09-10T23:56:02.668Z,15.70
2022-09-10T23:58:30.789Z,15.71
